DAL2554 RJTT-KMIA
Flight info
| Callsign | DAL2554 |
|---|---|
| Flight time | N/A |
| Altitude | 33000 |
| Route | AKAGI Y88 DAIGO Y889 PUTER/N0495F340 A590 POWAL/N0500F330 R451 AAMYY/N0492F350 R451 ADK DCT 51N170W 50N160W 49N150W/N0487F370 46N140W 41N130W DCT REDWD DCT MYV DCT LLOAF/N0489F390 DCT PEEWE DCT PUMPS DCT MIRME DCT MDANO DCT POTEN DCT PEBBY J58 HRV Q105 REDFN DCT DOWRY FROGZ5 |
| Aircraft | A35K/H-SDE2E3GHIJ3J4J5LM1ORWXY/LB1D1 |
Departure
| Time | 2026-05-04 20:20 |
|---|---|
| Airport | Tokyo Haneda International Airport (RJTT) |
Arrival
| Time | N/A |
|---|---|
| Airport | Miami International Airport (KMIA) |
| Time | Latitude | Longitude | Altitude | Speed | Heading |
|---|---|---|---|---|---|
| 2026-05-04 20:02 | 35.54641 | 139.77233 | 29 ft | 0 kts | 60° |
| 2026-05-04 20:04 | 35.54635 | 139.77220 | 29 ft | 4 kts | 60° |
| 2026-05-04 20:04 | 35.54621 | 139.77191 | 27 ft | 4 kts | 60° |
| 2026-05-04 20:05 | 35.54606 | 139.77166 | 29 ft | 4 kts | 32° |
| 2026-05-04 20:05 | 35.54584 | 139.77159 | 27 ft | 4 kts | 344° |
| 2026-05-04 20:05 | 35.54560 | 139.77172 | 27 ft | 3 kts | 330° |
| 2026-05-04 20:05 | 35.54557 | 139.77174 | 27 ft | 0 kts | 330° |
| 2026-05-04 20:09 | 35.54559 | 139.77173 | 27 ft | 0 kts | 332° |
| 2026-05-04 20:09 | 35.54568 | 139.77179 | 27 ft | 1 kts | 32° |
| 2026-05-04 20:09 | 35.54572 | 139.77201 | 28 ft | 6 kts | 80° |
| 2026-05-04 20:09 | 35.54592 | 139.77301 | 29 ft | 14 kts | 63° |
| 2026-05-04 20:10 | 35.54636 | 139.77402 | 29 ft | 13 kts | 69° |
| 2026-05-04 20:10 | 35.54616 | 139.77498 | 29 ft | 12 kts | 136° |
| 2026-05-04 20:10 | 35.54544 | 139.77554 | 29 ft | 12 kts | 150° |
| 2026-05-04 20:10 | 35.54466 | 139.77603 | 29 ft | 13 kts | 154° |
| 2026-05-04 20:11 | 35.54389 | 139.77659 | 29 ft | 13 kts | 146° |
| 2026-05-04 20:11 | 35.54312 | 139.77721 | 29 ft | 13 kts | 147° |
| 2026-05-04 20:11 | 35.54232 | 139.77780 | 29 ft | 14 kts | 151° |
| 2026-05-04 20:11 | 35.54149 | 139.77837 | 29 ft | 14 kts | 150° |
| 2026-05-04 20:12 | 35.54060 | 139.77898 | 29 ft | 15 kts | 150° |
| 2026-05-04 20:12 | 35.53984 | 139.77953 | 29 ft | 10 kts | 148° |
| 2026-05-04 20:12 | 35.53946 | 139.78023 | 29 ft | 10 kts | 96° |
| 2026-05-04 20:12 | 35.53972 | 139.78099 | 29 ft | 10 kts | 58° |
| 2026-05-04 20:13 | 35.53987 | 139.78128 | 29 ft | 0 kts | 58° |
| 2026-05-04 20:13 | 35.53996 | 139.78148 | 29 ft | 10 kts | 59° |
| 2026-05-04 20:13 | 35.54049 | 139.78262 | 29 ft | 20 kts | 61° |
| 2026-05-04 20:13 | 35.54127 | 139.78433 | 29 ft | 24 kts | 59° |
| 2026-05-04 20:14 | 35.54222 | 139.78625 | 29 ft | 24 kts | 58° |
| 2026-05-04 20:14 | 35.54304 | 139.78793 | 29 ft | 24 kts | 59° |
| 2026-05-04 20:14 | 35.54383 | 139.78959 | 30 ft | 21 kts | 60° |
| 2026-05-04 20:14 | 35.54457 | 139.79116 | 30 ft | 21 kts | 59° |
| 2026-05-04 20:15 | 35.54533 | 139.79276 | 28 ft | 22 kts | 60° |
| 2026-05-04 20:15 | 35.54610 | 139.79437 | 28 ft | 22 kts | 59° |
| 2026-05-04 20:15 | 35.54685 | 139.79596 | 29 ft | 21 kts | 59° |
| 2026-05-04 20:15 | 35.54680 | 139.79748 | 29 ft | 19 kts | 135° |
| 2026-05-04 20:16 | 35.54570 | 139.79833 | 29 ft | 19 kts | 150° |
| 2026-05-04 20:16 | 35.54456 | 139.79913 | 29 ft | 19 kts | 150° |
| 2026-05-04 20:16 | 35.54343 | 139.79994 | 29 ft | 19 kts | 150° |
| 2026-05-04 20:16 | 35.54228 | 139.80075 | 29 ft | 19 kts | 150° |
| 2026-05-04 20:17 | 35.54114 | 139.80156 | 29 ft | 19 kts | 150° |
| 2026-05-04 20:17 | 35.53999 | 139.80238 | 29 ft | 19 kts | 150° |
| 2026-05-04 20:17 | 35.53924 | 139.80310 | 29 ft | 10 kts | 111° |
| 2026-05-04 20:17 | 35.53932 | 139.80386 | 29 ft | 9 kts | 69° |
| 2026-05-04 20:18 | 35.53963 | 139.80458 | 29 ft | 11 kts | 58° |
| 2026-05-04 20:18 | 35.54016 | 139.80478 | 30 ft | 8 kts | 339° |
| 2026-05-04 20:18 | 35.54041 | 139.80459 | 30 ft | 1 kts | 329° |
| 2026-05-04 20:18 | 35.54180 | 139.80360 | 30 ft | 52 kts | 330° |
| 2026-05-04 20:19 | 35.54653 | 139.80026 | 30 ft | 104 kts | 330° |
| 2026-05-04 20:19 | 35.55126 | 139.79691 | 30 ft | 134 kts | 330° |
| 2026-05-04 20:19 | 35.56056 | 139.79031 | 65 ft | 170 kts | 329° |
| 2026-05-04 20:19 | 35.57069 | 139.78309 | 619 ft | 163 kts | 329° |
| 2026-05-04 20:20 | 35.58005 | 139.77523 | 1065 ft | 166 kts | 329° |
| 2026-05-04 20:20 | 35.59190 | 139.77436 | 1137 ft | 187 kts | 21° |
| 2026-05-04 20:20 | 35.60173 | 139.78562 | 1277 ft | 205 kts | 59° |
| 2026-05-04 20:20 | 35.60984 | 139.80116 | 1534 ft | 228 kts | 53° |
| 2026-05-04 20:21 | 35.62063 | 139.81628 | 1890 ft | 245 kts | 44° |
| 2026-05-04 20:21 | 35.63359 | 139.83028 | 2413 ft | 254 kts | 38° |
| 2026-05-04 20:21 | 35.66531 | 139.84939 | 3597 ft | 260 kts | 11° |
| 2026-05-04 20:22 | 35.68321 | 139.85369 | 4238 ft | 262 kts | 5° |
| 2026-05-04 20:22 | 35.70077 | 139.85437 | 5094 ft | 246 kts | 347° |
| 2026-05-04 20:22 | 35.71665 | 139.84732 | 5675 ft | 244 kts | 325° |
| 2026-05-04 20:22 | 35.73070 | 139.83526 | 6200 ft | 248 kts | 320° |